Time;durP1;ratioP1;P1;durP2;ratioP2;P2;SDS_P1;SDS_P2;PMS_P1;PMS_P2;Temp;Humidity;BMP_temperature;BMP_pressure;BME280_temperature;BME280_humidity;BME280_pressure;Samples;Min_cycle;Max_cycle;Signal;HPM_P1;HPM_P2
2021/05/13 00:01:36;;;;;;;14.53;4.70;;;16.90;82.20;;;;;;5068482;28;20504;-72
2021/05/13 00:04:03;;;;;;;20.00;5.40;;;16.80;82.60;;;;;;5066660;28;20433;-73
2021/05/13 00:06:29;;;;;;;16.30;4.90;;;16.80;82.80;;;;;;5084771;28;20524;-72
2021/05/13 00:08:56;;;;;;;17.65;5.10;;;16.80;82.90;;;;;;5085266;28;20421;-72
2021/05/13 00:11:28;;;;;;;17.70;4.90;;;16.80;83.70;;;;;;5067870;28;20545;-71
2021/05/13 00:13:54;;;;;;;20.77;5.13;;;16.80;83.80;;;;;;5099812;28;20431;-73
2021/05/13 00:16:26;;;;;;;19.65;5.57;;;16.70;83.80;;;;;;5086454;28;20421;-73
2021/05/13 00:18:54;;;;;;;18.40;5.28;;;16.70;84.20;;;;;;5068030;28;20434;-72
2021/05/13 00:21:20;;;;;;;17.55;5.00;;;16.60;84.50;;;;;;5086339;28;20421;-72
2021/05/13 00:23:47;;;;;;;19.83;5.50;;;16.60;84.80;;;;;;5082920;28;20421;-72
2021/05/13 00:26:13;;;;;;;20.38;5.80;;;16.60;85.00;;;;;;5086657;28;20800;-72
2021/05/13 00:28:40;;;;;;;23.38;5.60;;;16.60;85.30;;;;;;5067287;28;20426;-73
2021/05/13 00:31:06;;;;;;;19.88;5.85;;;16.60;85.40;;;;;;5085437;28;20814;-72
2021/05/13 00:33:33;;;;;;;18.98;5.95;;;16.50;85.20;;;;;;5085739;28;20493;-72
2021/05/13 00:36:00;;;;;;;19.00;5.72;;;16.50;85.50;;;;;;5083710;28;20913;-72
2021/05/13 00:38:26;;;;;;;22.80;5.85;;;16.50;85.70;;;;;;5082533;28;20427;-72
2021/05/13 00:40:53;;;;;;;17.33;5.60;;;16.50;85.80;;;;;;5083763;28;20426;-73
2021/05/13 00:43:20;;;;;;;22.88;6.00;;;16.40;86.10;;;;;;5099106;28;20451;-72
2021/05/13 00:45:46;;;;;;;17.10;5.93;;;16.40;86.40;;;;;;5086678;28;20873;-71
2021/05/13 00:48:16;;;;;;;22.70;5.87;;;16.40;86.20;;;;;;5083338;28;20637;-72
2021/05/13 00:50:42;;;;;;;16.17;5.50;;;16.40;86.40;;;;;;5084557;28;20463;-72
2021/05/13 00:53:11;;;;;;;21.63;6.20;;;16.40;86.40;;;;;;5064635;28;21012;-72
2021/05/13 00:55:39;;;;;;;21.85;6.05;;;16.30;86.60;;;;;;5082260;28;20440;-72
2021/05/13 00:58:06;;;;;;;17.17;5.90;;;16.30;86.40;;;;;;5084432;28;20538;-71
2021/05/13 01:00:49;;;;;;;19.63;5.95;;;16.30;86.60;;;;;;5086270;28;20460;-72
2021/05/13 01:03:15;;;;;;;19.25;6.50;;;16.30;87.00;;;;;;5066741;28;20429;-73
2021/05/13 01:05:42;;;;;;;19.02;6.22;;;16.30;87.50;;;;;;5080454;28;20447;-72
2021/05/13 01:08:09;;;;;;;16.73;6.03;;;16.20;87.50;;;;;;5082559;28;20417;-72
2021/05/13 01:10:37;;;;;;;17.70;6.15;;;16.20;87.60;;;;;;5084054;28;20897;-71
2021/05/13 01:13:07;;;;;;;20.35;6.18;;;16.10;87.60;;;;;;5083659;28;20426;-72
2021/05/13 01:15:40;;;;;;;21.55;6.30;;;16.10;87.70;;;;;;5084666;28;20795;-72
2021/05/13 01:18:14;;;;;;;20.65;6.50;;;16.10;88.10;;;;;;5081776;28;20417;-72
2021/05/13 01:20:41;;;;;;;16.05;5.65;;;16.10;87.70;;;;;;5086057;28;20464;-72
2021/05/13 01:23:11;;;;;;;21.20;6.32;;;16.00;87.70;;;;;;5084580;28;20781;-71
2021/05/13 01:25:49;;;;;;;18.13;6.10;;;16.00;87.80;;;;;;5084104;28;20458;-72
2021/05/13 01:28:15;;;;;;;17.83;5.70;;;16.00;88.30;;;;;;5083294;28;20436;-71
2021/05/13 01:30:43;;;;;;;19.15;6.10;;;16.00;88.50;;;;;;5084904;28;20414;-73
2021/05/13 01:33:11;;;;;;;21.02;6.07;;;16.00;88.80;;;;;;5062716;28;20483;-72
2021/05/13 01:35:38;;;;;;;21.02;5.93;;;16.00;88.80;;;;;;5082713;28;20537;-71
2021/05/13 01:38:07;;;;;;;16.85;5.80;;;16.00;88.40;;;;;;5080982;28;20781;-72
2021/05/13 01:40:35;;;;;;;17.17;5.78;;;16.00;88.60;;;;;;5079486;28;20507;-75
2021/05/13 01:43:02;;;;;;;17.70;5.43;;;15.90;88.70;;;;;;5079646;28;20478;-73
2021/05/13 01:45:29;;;;;;;17.70;5.57;;;16.00;88.60;;;;;;5080287;28;20425;-71
2021/05/13 01:48:01;;;;;;;17.33;5.63;;;16.00;88.80;;;;;;5084646;28;20413;-71
2021/05/13 01:50:29;;;;;;;16.98;5.88;;;15.90;88.70;;;;;;5083631;28;20924;-72
2021/05/13 01:52:57;;;;;;;17.52;6.10;;;15.90;88.40;;;;;;5085313;28;20437;-72
2021/05/13 01:55:24;;;;;;;16.58;5.53;;;15.90;88.00;;;;;;5080751;28;20431;-72
2021/05/13 01:57:51;;;;;;;16.02;6.13;;;15.90;88.10;;;;;;5083565;28;20430;-73
2021/05/13 02:00:19;;;;;;;13.00;5.40;;;15.80;88.60;;;;;;5066010;28;20786;-71
2021/05/13 02:02:47;;;;;;;19.10;5.78;;;15.80;88.60;;;;;;5082009;28;20528;-71
2021/05/13 02:05:14;;;;;;;17.08;5.72;;;15.80;88.40;;;;;;5081798;28;20471;-71
2021/05/13 02:07:41;;;;;;;16.73;5.97;;;15.70;87.70;;;;;;5083419;28;20421;-72
2021/05/13 02:10:10;;;;;;;16.08;6.40;;;15.80;87.30;;;;;;5077862;28;20423;-71
2021/05/13 02:12:37;;;;;;;18.00;6.53;;;15.70;87.30;;;;;;5062385;28;20441;-71
2021/05/13 02:15:06;;;;;;;17.80;5.95;;;15.70;87.30;;;;;;5081919;28;20434;-72
2021/05/13 02:17:32;;;;;;;19.13;6.53;;;15.70;87.50;;;;;;5083496;28;20421;-72
2021/05/13 02:19:59;;;;;;;18.23;6.20;;;15.60;87.10;;;;;;5082393;28;20434;-72
2021/05/13 02:22:25;;;;;;;18.43;6.50;;;15.60;86.70;;;;;;5068538;28;20485;-72
2021/05/13 02:24:52;;;;;;;20.30;6.50;;;15.50;86.90;;;;;;5066655;28;20425;-70
2021/05/13 02:27:18;;;;;;;19.60;6.60;;;15.50;87.60;;;;;;5085345;28;20429;-71
2021/05/13 02:29:44;;;;;;;18.98;6.65;;;15.40;88.60;;;;;;5080961;28;20421;-71
2021/05/13 02:32:12;;;;;;;17.02;6.30;;;15.40;89.00;;;;;;5083821;28;20425;-71
2021/05/13 02:34:38;;;;;;;13.95;5.78;;;15.40;89.10;;;;;;5083737;28;20420;-72
2021/05/13 02:37:05;;;;;;;16.38;5.97;;;15.40;88.10;;;;;;5083132;28;20432;-72
2021/05/13 02:39:32;;;;;;;14.15;5.60;;;15.40;87.60;;;;;;5085275;28;20429;-70
2021/05/13 02:41:59;;;;;;;14.80;6.00;;;15.30;87.90;;;;;;5085341;28;20421;-71
2021/05/13 02:44:25;;;;;;;15.23;6.03;;;15.30;88.10;;;;;;5082928;28;20429;-71
2021/05/13 02:46:52;;;;;;;14.60;6.80;;;15.20;88.00;;;;;;5084144;28;20425;-72
2021/05/13 02:49:19;;;;;;;16.33;6.30;;;15.20;88.10;;;;;;5081785;28;20819;-73
2021/05/13 02:51:46;;;;;;;18.23;6.50;;;15.10;88.50;;;;;;5084620;28;20827;-72
2021/05/13 02:54:12;;;;;;;16.73;6.70;;;15.10;88.90;;;;;;5083883;28;20421;-71
2021/05/13 02:56:38;;;;;;;13.65;6.35;;;15.00;89.40;;;;;;5097839;28;20783;-71
2021/05/13 02:59:05;;;;;;;13.53;6.17;;;15.00;89.70;;;;;;5081180;28;20432;-71
2021/05/13 03:01:31;;;;;;;15.38;6.65;;;15.00;89.50;;;;;;5080561;28;20912;-71
2021/05/13 03:03:58;;;;;;;17.52;7.22;;;15.00;89.30;;;;;;5081976;28;20755;-72
2021/05/13 03:06:27;;;;;;;16.10;6.93;;;15.00;89.90;;;;;;5082889;28;20414;-72
2021/05/13 03:08:55;;;;;;;16.73;6.40;;;15.00;90.00;;;;;;5067348;28;20448;-71
2021/05/13 03:11:22;;;;;;;16.23;7.20;;;15.00;90.30;;;;;;5088159;28;20513;-71
2021/05/13 03:13:51;;;;;;;16.25;6.45;;;15.00;90.40;;;;;;5085115;28;20899;-72
2021/05/13 03:16:17;;;;;;;16.77;6.82;;;15.00;90.60;;;;;;5086718;28;20775;-72
2021/05/13 03:18:45;;;;;;;15.77;6.38;;;14.90;90.70;;;;;;5084027;28;20417;-72
2021/05/13 03:21:18;;;;;;;15.20;6.60;;;14.90;90.50;;;;;;5089032;28;20937;-73
2021/05/13 03:23:51;;;;;;;18.85;7.00;;;14.90;90.20;;;;;;5084624;28;20426;-71
2021/05/13 03:26:25;;;;;;;12.90;5.90;;;14.90;89.90;;;;;;5085741;28;20430;-71
2021/05/13 03:28:52;;;;;;;15.82;6.70;;;14.90;89.90;;;;;;5084611;28;20860;-70
2021/05/13 03:31:18;;;;;;;17.65;6.57;;;14.80;90.10;;;;;;5087101;28;20905;-74
2021/05/13 03:33:45;;;;;;;15.77;6.88;;;14.80;90.00;;;;;;5082066;28;20472;-72
2021/05/13 03:36:11;;;;;;;16.48;6.60;;;14.80;90.00;;;;;;5087128;28;20558;-72
2021/05/13 03:38:37;;;;;;;14.23;6.65;;;14.80;90.10;;;;;;5069258;28;20482;-71
2021/05/13 03:41:05;;;;;;;16.20;6.57;;;14.70;90.30;;;;;;5086006;28;20459;-72
2021/05/13 03:43:31;;;;;;;15.13;6.60;;;14.70;90.30;;;;;;5085631;28;21181;-71
2021/05/13 03:45:58;;;;;;;14.93;6.60;;;14.70;90.30;;;;;;5081385;28;20421;-71
2021/05/13 03:48:24;;;;;;;20.92;7.18;;;14.70;90.20;;;;;;5083962;28;20511;-72
2021/05/13 03:50:50;;;;;;;16.95;6.47;;;14.60;89.80;;;;;;5085224;28;20417;-72
2021/05/13 03:53:17;;;;;;;16.58;6.65;;;14.60;89.80;;;;;;5085359;28;20495;-72
2021/05/13 03:55:46;;;;;;;14.65;6.65;;;14.60;90.00;;;;;;5087728;28;20425;-72
2021/05/13 03:58:14;;;;;;;17.98;7.10;;;14.50;90.20;;;;;;5101659;28;20509;-71
2021/05/13 04:00:45;;;;;;;16.25;6.80;;;14.60;90.40;;;;;;5086039;28;20421;-71
2021/05/13 04:03:11;;;;;;;16.20;6.78;;;14.50;89.90;;;;;;5084281;28;20498;-72
2021/05/13 04:05:38;;;;;;;17.42;7.18;;;14.50;89.00;;;;;;5085906;28;20436;-73
2021/05/13 04:08:07;;;;;;;19.15;6.78;;;14.50;89.40;;;;;;5084329;28;20429;-72
2021/05/13 04:10:33;;;;;;;18.58;6.90;;;14.50;90.00;;;;;;5086812;28;20429;-72
2021/05/13 04:13:02;;;;;;;18.20;6.72;;;14.40;90.40;;;;;;5088148;28;20942;-71
2021/05/13 04:15:30;;;;;;;15.90;6.80;;;14.50;90.70;;;;;;5086574;28;20434;-73
2021/05/13 04:17:56;;;;;;;17.70;7.00;;;14.40;90.60;;;;;;5066539;28;20523;-72
2021/05/13 04:20:23;;;;;;;17.88;7.00;;;14.50;90.30;;;;;;5085022;28;20427;-72
2021/05/13 04:22:50;;;;;;;17.80;7.10;;;14.40;90.20;;;;;;5085499;28;20421;-73
2021/05/13 04:25:17;;;;;;;20.98;7.15;;;14.40;90.10;;;;;;5084360;28;20893;-72
2021/05/13 04:27:43;;;;;;;22.13;10.45;;;14.40;90.10;;;;;;5083513;28;20427;-72
2021/05/13 04:30:11;;;;;;;22.67;6.85;;;14.40;90.30;;;;;;5084578;28;20781;-70
2021/05/13 04:32:39;;;;;;;16.33;6.55;;;14.40;90.70;;;;;;5082426;28;20517;-73
2021/05/13 04:35:07;;;;;;;18.73;6.50;;;14.40;90.80;;;;;;5083572;28;20939;-72
2021/05/13 04:37:33;;;;;;;17.17;6.15;;;14.40;91.10;;;;;;5065884;28;20429;-73
2021/05/13 04:39:59;;;;;;;16.00;6.45;;;14.50;91.40;;;;;;5083592;28;20418;-72
2021/05/13 04:42:26;;;;;;;18.10;6.20;;;14.40;91.40;;;;;;5083587;28;20517;-73
2021/05/13 04:44:54;;;;;;;19.92;6.30;;;14.50;91.80;;;;;;5066896;28;20422;-73
2021/05/13 04:47:25;;;;;;;16.58;6.20;;;14.50;91.90;;;;;;5085186;28;20491;-73
2021/05/13 04:49:54;;;;;;;18.67;6.50;;;14.50;91.80;;;;;;5081096;28;20495;-73
2021/05/13 04:52:24;;;;;;;14.48;6.50;;;14.50;92.10;;;;;;5066442;28;20424;-72
2021/05/13 04:54:51;;;;;;;14.85;6.78;;;14.50;92.30;;;;;;5080305;28;21185;-73
2021/05/13 04:57:18;;;;;;;16.67;6.95;;;14.50;92.50;;;;;;5084345;28;20448;-74
2021/05/13 04:59:44;;;;;;;17.35;7.93;;;14.50;92.70;;;;;;5092833;28;20525;-73
2021/05/13 05:02:11;;;;;;;18.15;7.13;;;14.50;92.90;;;;;;5064203;28;20492;-72
2021/05/13 05:04:37;;;;;;;18.27;7.10;;;14.50;93.10;;;;;;5078769;28;20453;-72
2021/05/13 05:07:05;;;;;;;16.87;6.90;;;14.50;93.20;;;;;;5081065;28;20419;-72
2021/05/13 05:09:31;;;;;;;19.90;8.02;;;14.60;93.40;;;;;;5078466;28;20443;-74
2021/05/13 05:11:58;;;;;;;16.70;7.15;;;14.60;93.60;;;;;;5079560;28;21002;-71
2021/05/13 05:14:24;;;;;;;17.17;7.00;;;14.60;93.60;;;;;;5095887;28;20442;-72
2021/05/13 05:16:51;;;;;;;20.23;7.00;;;14.60;93.60;;;;;;5082739;28;20414;-72
2021/05/13 05:19:17;;;;;;;20.80;8.23;;;14.70;93.70;;;;;;5083174;28;20422;-73
2021/05/13 05:21:44;;;;;;;19.25;8.30;;;14.70;93.70;;;;;;5082189;28;20417;-72
2021/05/13 05:24:11;;;;;;;21.87;11.93;;;14.70;93.80;;;;;;5083541;28;20431;-72
2021/05/13 05:26:38;;;;;;;21.50;11.03;;;14.70;93.80;;;;;;5084223;28;20889;-72
2021/05/13 05:29:05;;;;;;;22.20;10.27;;;14.80;94.00;;;;;;5082488;28;20519;-74
2021/05/13 05:31:31;;;;;;;20.67;11.35;;;14.70;94.00;;;;;;5067879;28;20418;-73
2021/05/13 05:33:58;;;;;;;24.25;11.95;;;14.80;94.10;;;;;;5082807;28;20479;-72
2021/05/13 05:36:27;;;;;;;22.77;13.25;;;14.80;94.10;;;;;;5082464;28;20433;-72
2021/05/13 05:38:55;;;;;;;26.23;14.85;;;14.80;94.20;;;;;;5084102;28;20537;-73
2021/05/13 05:41:23;;;;;;;24.40;14.27;;;14.90;94.20;;;;;;5083776;28;20425;-72
2021/05/13 05:43:50;;;;;;;23.67;14.02;;;14.90;94.20;;;;;;5068596;28;20474;-73
2021/05/13 05:46:16;;;;;;;22.08;12.77;;;14.90;94.30;;;;;;5082393;28;20425;-71
2021/05/13 05:48:42;;;;;;;21.58;12.10;;;15.00;94.30;;;;;;5085910;28;20426;-72
2021/05/13 05:51:09;;;;;;;22.20;12.00;;;15.00;94.30;;;;;;5082520;28;20516;-72
2021/05/13 05:53:35;;;;;;;21.60;11.25;;;15.00;94.40;;;;;;5080964;28;20433;-70
2021/05/13 05:56:02;;;;;;;22.17;10.38;;;15.00;94.50;;;;;;5084835;28;20479;-73
2021/05/13 05:58:29;;;;;;;18.73;9.38;;;15.10;94.70;;;;;;5084557;28;20822;-71
2021/05/13 06:00:56;;;;;;;19.38;9.02;;;15.10;94.70;;;;;;5083349;28;21198;-72
2021/05/13 06:03:22;;;;;;;22.92;9.07;;;15.10;94.90;;;;;;5083000;28;20419;-72
2021/05/13 06:05:49;;;;;;;17.02;8.10;;;15.10;95.00;;;;;;5084973;28;20430;-72
2021/05/13 06:08:15;;;;;;;16.25;7.65;;;15.20;95.00;;;;;;5082781;28;20422;-72
2021/05/13 06:10:42;;;;;;;15.35;7.35;;;15.20;95.10;;;;;;5066451;28;20490;-73
2021/05/13 06:13:08;;;;;;;17.25;6.88;;;15.20;95.20;;;;;;5083131;28;20781;-72
2021/05/13 06:15:37;;;;;;;14.38;6.57;;;15.30;95.00;;;;;;5080832;28;20453;-74
2021/05/13 06:18:04;;;;;;;17.65;6.38;;;15.30;95.00;;;;;;5080644;28;20425;-74
2021/05/13 06:20:32;;;;;;;13.50;6.23;;;15.30;95.00;;;;;;5083142;28;20429;-73
2021/05/13 06:22:58;;;;;;;12.97;5.80;;;15.30;95.00;;;;;;5084899;28;20436;-72
2021/05/13 06:25:26;;;;;;;16.13;6.40;;;15.40;95.10;;;;;;5083310;28;20784;-71
2021/05/13 06:27:52;;;;;;;13.85;6.03;;;15.40;95.00;;;;;;5083189;28;20779;-73
2021/05/13 06:30:20;;;;;;;11.80;6.00;;;15.40;94.90;;;;;;5094720;28;20422;-72
2021/05/13 06:32:48;;;;;;;14.52;7.15;;;15.40;94.50;;;;;;5081544;28;20971;-72
2021/05/13 06:35:16;;;;;;;16.58;6.30;;;15.50;94.80;;;;;;5064756;28;20437;-72
2021/05/13 06:37:43;;;;;;;14.07;5.93;;;15.50;95.10;;;;;;5082263;28;20426;-73
2021/05/13 06:40:10;;;;;;;14.80;6.78;;;15.50;94.70;;;;;;5078907;28;20426;-71
2021/05/13 06:42:37;;;;;;;11.32;6.00;;;15.50;95.00;;;;;;5065962;28;20413;-71
2021/05/13 06:45:03;;;;;;;15.53;6.23;;;15.60;94.80;;;;;;5085868;28;20429;-72
2021/05/13 06:47:30;;;;;;;12.38;6.20;;;15.60;94.70;;;;;;5070950;28;20921;-71
2021/05/13 06:49:57;;;;;;;15.38;6.60;;;15.60;94.80;;;;;;5084219;28;20421;-71
2021/05/13 06:52:24;;;;;;;14.30;6.45;;;15.70;94.80;;;;;;5085440;28;20413;-72
2021/05/13 06:54:51;;;;;;;11.65;6.07;;;15.70;94.80;;;;;;5067536;28;20440;-71
2021/05/13 06:57:17;;;;;;;12.93;6.70;;;15.70;94.80;;;;;;5071074;28;20426;-70
2021/05/13 06:59:45;;;;;;;12.00;6.40;;;15.70;94.70;;;;;;5087423;28;20497;-72
2021/05/13 07:02:12;;;;;;;11.13;6.40;;;15.80;94.70;;;;;;5085353;28;20456;-72
2021/05/13 07:04:39;;;;;;;13.05;6.57;;;15.90;94.50;;;;;;5087631;28;20486;-71
2021/05/13 07:07:07;;;;;;;15.52;7.10;;;15.90;94.40;;;;;;5067407;28;20419;-72
2021/05/13 07:09:33;;;;;;;11.97;6.37;;;15.90;93.70;;;;;;5085009;28;20442;-72
2021/05/13 07:12:00;;;;;;;12.98;6.90;;;15.90;93.80;;;;;;5085781;28;20504;-70
2021/05/13 07:14:26;;;;;;;12.00;6.40;;;15.90;93.70;;;;;;5068303;28;20419;-71
2021/05/13 07:16:53;;;;;;;13.48;6.72;;;15.90;93.50;;;;;;5068666;28;20432;-72
2021/05/13 07:19:19;;;;;;;12.68;6.20;;;16.00;93.40;;;;;;5085068;28;20436;-72
2021/05/13 07:21:46;;;;;;;12.20;6.10;;;16.00;93.10;;;;;;5085206;28;20424;-72
2021/05/13 07:24:13;;;;;;;11.83;5.73;;;16.10;93.10;;;;;;5083625;28;20447;-73
2021/05/13 07:26:40;;;;;;;11.18;6.15;;;16.10;92.60;;;;;;5085835;28;20784;-72
2021/05/13 07:29:10;;;;;;;11.05;5.88;;;16.10;92.10;;;;;;5085865;28;20454;-74
2021/05/13 07:31:36;;;;;;;11.13;6.05;;;16.10;91.80;;;;;;5086848;28;20502;-75
2021/05/13 07:34:03;;;;;;;11.60;5.97;;;16.10;91.90;;;;;;5085892;28;20421;-74
2021/05/13 07:36:29;;;;;;;10.32;5.85;;;16.10;92.10;;;;;;5083463;28;20808;-74
2021/05/13 07:38:56;;;;;;;9.32;5.63;;;16.20;92.30;;;;;;5085660;28;20509;-72
2021/05/13 07:41:23;;;;;;;11.60;6.53;;;16.20;92.60;;;;;;5064685;28;20478;-74
2021/05/13 07:43:52;;;;;;;10.18;5.70;;;16.30;92.60;;;;;;5080867;28;20429;-75
2021/05/13 07:46:20;;;;;;;12.25;5.60;;;16.30;92.80;;;;;;5079560;28;20683;-73
2021/05/13 07:48:48;;;;;;;10.60;5.20;;;16.40;92.50;;;;;;5078176;28;20452;-74
2021/05/13 07:51:15;;;;;;;8.65;4.90;;;16.40;92.30;;;;;;5082185;28;20432;-73
2021/05/13 07:53:42;;;;;;;10.10;5.37;;;16.40;91.20;;;;;;5092757;28;20491;-72
2021/05/13 07:56:08;;;;;;;11.48;6.70;;;16.50;91.20;;;;;;5083280;28;20780;-73
2021/05/13 07:58:36;;;;;;;12.63;7.07;;;16.50;91.20;;;;;;5079792;28;20429;-72
2021/05/13 08:01:02;;;;;;;15.13;7.82;;;16.60;91.30;;;;;;5079512;28;20416;-73
2021/05/13 08:03:28;;;;;;;16.20;9.98;;;16.70;91.60;;;;;;5079014;28;20419;-75
2021/05/13 08:05:55;;;;;;;19.50;10.73;;;16.70;91.90;;;;;;5081611;28;20433;-73
2021/05/13 08:08:21;;;;;;;15.73;10.02;;;16.70;91.90;;;;;;5067199;28;20440;-74
2021/05/13 08:10:47;;;;;;;13.38;9.27;;;16.80;91.90;;;;;;5084729;28;20426;-74
2021/05/13 08:13:16;;;;;;;14.63;8.73;;;16.80;91.50;;;;;;5084096;28;20429;-73
2021/05/13 08:15:43;;;;;;;18.60;9.82;;;16.90;91.00;;;;;;5084545;28;20428;-73
2021/05/13 08:18:10;;;;;;;17.58;11.38;;;16.90;90.80;;;;;;5083073;28;20440;-72
2021/05/13 08:20:36;;;;;;;20.38;11.88;;;17.00;91.10;;;;;;5086654;28;20430;-73
2021/05/13 08:23:02;;;;;;;15.40;10.40;;;17.00;90.90;;;;;;5077728;28;21205;-74
2021/05/13 08:25:29;;;;;;;15.38;9.88;;;17.10;90.90;;;;;;5082910;28;20909;-73
2021/05/13 08:27:55;;;;;;;15.27;9.90;;;17.10;90.60;;;;;;5080505;28;20834;-73
2021/05/13 08:30:22;;;;;;;16.15;9.43;;;17.20;90.40;;;;;;5081597;28;20835;-72
2021/05/13 08:32:50;;;;;;;15.23;8.10;;;17.20;90.40;;;;;;5065578;28;20426;-73
2021/05/13 08:35:16;;;;;;;15.27;8.18;;;17.20;90.40;;;;;;5080327;28;20426;-74
2021/05/13 08:37:43;;;;;;;13.70;7.88;;;17.30;90.30;;;;;;5081192;28;20417;-71
2021/05/13 08:40:10;;;;;;;11.25;7.15;;;17.30;90.30;;;;;;5081678;28;21437;-73
2021/05/13 08:42:38;;;;;;;12.70;7.47;;;17.40;89.90;;;;;;5083279;28;20425;-71
2021/05/13 08:45:06;;;;;;;13.65;7.40;;;17.40;88.60;;;;;;5081956;28;20890;-70
2021/05/13 08:47:33;;;;;;;14.05;7.93;;;17.50;87.70;;;;;;5085386;28;20417;-71
2021/05/13 08:50:02;;;;;;;12.75;7.70;;;17.60;87.40;;;;;;5084229;28;20425;-69
2021/05/13 08:52:29;;;;;;;13.77;7.73;;;17.60;87.70;;;;;;5080371;28;20423;-74
2021/05/13 08:54:57;;;;;;;13.25;8.00;;;17.70;88.50;;;;;;5093755;28;20426;-70
2021/05/13 08:57:24;;;;;;;13.45;7.22;;;17.70;88.10;;;;;;5084059;28;20434;-71
2021/05/13 08:59:51;;;;;;;12.10;7.10;;;17.80;86.80;;;;;;5082250;28;20425;-72
2021/05/13 09:02:18;;;;;;;16.35;7.57;;;17.80;87.50;;;;;;5097755;28;20437;-69
2021/05/13 09:04:47;;;;;;;14.77;7.70;;;17.80;86.90;;;;;;5081317;28;20431;-70
2021/05/13 09:07:18;;;;;;;15.20;7.60;;;17.90;86.90;;;;;;5061334;28;20422;-71
2021/05/13 09:09:58;;;;;;;14.38;7.43;;;18.00;86.40;;;;;;5081187;28;20429;-71
2021/05/13 09:12:26;;;;;;;13.07;7.00;;;18.10;85.90;;;;;;5084084;28;20431;-71
2021/05/13 09:15:01;;;;;;;12.25;6.30;;;18.10;85.90;;;;;;5088080;28;20417;-70
2021/05/13 09:17:30;;;;;;;12.68;6.40;;;18.20;83.50;;;;;;5085758;28;20453;-72
2021/05/13 09:19:57;;;;;;;11.70;6.75;;;18.30;83.00;;;;;;5087554;28;20899;-70
2021/05/13 09:22:26;;;;;;;12.35;6.32;;;18.30;82.80;;;;;;5088847;28;20409;-70
2021/05/13 09:24:57;;;;;;;11.00;6.13;;;18.40;82.70;;;;;;5084399;28;20429;-72
2021/05/13 09:27:26;;;;;;;12.40;6.18;;;18.40;81.70;;;;;;5069069;28;20832;-71
2021/05/13 09:30:14;;;;;;;12.25;6.50;;;18.50;81.70;;;;;;5086587;28;20836;-72
2021/05/13 09:32:42;;;;;;;12.80;6.47;;;18.60;81.10;;;;;;5083273;28;20873;-73
2021/05/13 09:35:11;;;;;;;10.80;5.97;;;18.70;81.90;;;;;;5084616;28;20463;-74
2021/05/13 09:37:44;;;;;;;13.52;6.72;;;18.80;79.10;;;;;;5062920;28;23131;-72
2021/05/13 09:40:12;;;;;;;11.57;6.22;;;18.90;78.90;;;;;;5065109;28;20510;-70
2021/05/13 09:42:39;;;;;;;10.55;5.47;;;19.00;78.00;;;;;;5084186;28;20237;-73
2021/05/13 09:45:08;;;;;;;15.23;6.10;;;18.80;78.90;;;;;;5082560;28;20206;-72
2021/05/13 09:47:36;;;;;;;12.30;5.82;;;18.70;79.50;;;;;;5082770;28;20449;-73
2021/05/13 09:50:06;;;;;;;16.15;5.63;;;18.60;80.20;;;;;;5082186;28;20687;-72
2021/05/13 09:52:47;;;;;;;11.00;5.32;;;18.60;80.70;;;;;;5086005;28;20198;-71
2021/05/13 09:55:19;;;;;;;13.60;6.82;;;18.60;80.70;;;;;;5085707;28;20213;-73
2021/05/13 09:57:51;;;;;;;18.42;6.53;;;18.60;80.70;;;;;;5087338;28;20202;-72
2021/05/13 10:00:42;;;;;;;10.20;5.43;;;18.60;80.80;;;;;;5082448;28;20662;-72
2021/05/13 10:03:11;;;;;;;15.30;5.82;;;18.70;80.20;;;;;;5080809;28;20205;-72
2021/05/13 10:05:42;;;;;;;11.13;5.93;;;18.70;80.20;;;;;;5084610;28;20198;-72
2021/05/13 10:08:11;;;;;;;12.10;5.00;;;18.80;79.70;;;;;;5082593;28;20566;-73
2021/05/13 10:10:40;;;;;;;10.93;5.20;;;18.80;79.30;;;;;;5098412;28;20213;-73
2021/05/13 10:13:07;;;;;;;12.65;5.45;;;18.90;79.00;;;;;;5082482;28;20285;-72
2021/05/13 10:15:37;;;;;;;9.23;5.10;;;19.00;78.60;;;;;;5079567;28;20428;-72
2021/05/13 10:18:07;;;;;;;10.75;5.50;;;19.50;75.70;;;;;;5081556;28;20524;-72
2021/05/13 10:20:34;;;;;;;12.57;5.50;;;19.90;73.00;;;;;;5082624;28;20920;-71
2021/05/13 10:23:01;;;;;;;12.98;7.78;;;20.20;71.00;;;;;;5082117;28;20471;-73
2021/05/13 10:25:30;;;;;;;11.93;5.60;;;20.50;69.40;;;;;;5099929;28;20439;-71
2021/05/13 10:27:59;;;;;;;10.52;6.00;;;20.70;70.20;;;;;;5082844;28;20512;-72
2021/05/13 10:30:28;;;;;;;12.82;6.45;;;20.80;70.30;;;;;;5066572;28;23031;-73
2021/05/13 10:33:09;;;;;;;10.00;6.03;;;21.00;70.70;;;;;;5084384;28;20519;-72
2021/05/13 10:35:36;;;;;;;12.75;6.93;;;21.10;70.70;;;;;;5083674;28;20446;-72
2021/05/13 10:38:07;;;;;;;13.55;6.50;;;21.30;70.10;;;;;;5083501;28;20506;-72
2021/05/13 10:40:45;;;;;;;12.43;6.47;;;21.50;67.70;;;;;;5082086;28;20484;-72
2021/05/13 10:43:12;;;;;;;10.73;5.57;;;21.60;66.70;;;;;;5082073;28;20437;-72
2021/05/13 10:45:40;;;;;;;12.35;6.35;;;21.80;65.30;;;;;;5081331;28;20539;-71
2021/05/13 10:48:20;;;;;;;11.98;6.50;;;21.80;64.40;;;;;;5081261;28;20421;-72
2021/05/13 10:50:58;;;;;;;12.75;6.25;;;21.90;64.70;;;;;;5081544;28;20419;-71
2021/05/13 10:53:44;;;;;;;10.90;5.78;;;21.90;63.90;;;;;;5081545;28;20418;-71
2021/05/13 10:56:23;;;;;;;10.48;6.28;;;22.00;64.10;;;;;;5084289;28;20802;-72
2021/05/13 10:58:54;;;;;;;11.35;6.55;;;22.10;62.50;;;;;;5063912;28;20790;-72
2021/05/13 11:01:31;;;;;;;11.55;5.60;;;22.20;61.70;;;;;;5084567;28;20920;-73
2021/05/13 11:04:41;;;;;;;11.43;6.63;;;22.30;61.10;;;;;;5081780;28;20433;-73
2021/05/13 11:07:28;;;;;;;12.07;6.10;;;22.40;59.90;;;;;;5082957;28;20436;-71
2021/05/13 11:10:06;;;;;;;12.38;5.90;;;22.40;61.30;;;;;;5075685;28;20845;-72
2021/05/13 11:12:41;;;;;;;10.90;5.57;;;22.50;59.80;;;;;;5080597;28;20422;-72
2021/05/13 11:15:16;;;;;;;10.48;5.68;;;22.50;59.70;;;;;;5065290;28;20938;-72
2021/05/13 11:18:08;;;;;;;9.30;4.65;;;22.60;60.50;;;;;;5080527;28;20467;-72
2021/05/13 11:20:38;;;;;;;9.43;4.05;;;22.70;57.20;;;;;;5076948;28;20425;-73
2021/05/13 11:23:07;;;;;;;11.02;5.38;;;22.80;55.10;;;;;;5076790;28;20413;-74
2021/05/13 11:25:41;;;;;;;7.70;4.17;;;22.80;56.70;;;;;;5086420;28;20497;-74
2021/05/13 11:28:20;;;;;;;9.00;3.95;;;22.90;55.80;;;;;;5070257;28;20501;-74
2021/05/13 11:30:49;;;;;;;8.27;3.72;;;23.00;55.00;;;;;;5089297;28;20416;-74
2021/05/13 11:33:15;;;;;;;9.93;4.13;;;23.10;54.30;;;;;;5090155;28;20428;-74
2021/05/13 11:35:42;;;;;;;8.57;4.70;;;23.10;54.00;;;;;;5090201;28;20406;-72
2021/05/13 11:38:19;;;;;;;8.50;4.70;;;23.20;55.30;;;;;;5089253;28;20425;-73
2021/05/13 11:40:46;;;;;;;9.52;4.57;;;23.30;55.40;;;;;;5070456;28;20788;-73
2021/05/13 11:43:25;;;;;;;7.95;4.10;;;23.30;54.70;;;;;;5088844;28;20432;-73
2021/05/13 11:45:54;;;;;;;10.50;5.05;;;23.40;52.90;;;;;;5090099;28;20476;-73
2021/05/13 11:48:23;;;;;;;16.75;10.00;;;23.40;52.40;;;;;;5102948;28;20460;-74
2021/05/13 11:50:49;;;;;;;8.95;4.40;;;23.60;53.00;;;;;;5087744;28;20405;-71
2021/05/13 11:53:18;;;;;;;11.80;7.47;;;23.60;51.90;;;;;;5087283;28;20429;-72
2021/05/13 11:55:45;;;;;;;8.88;3.97;;;23.70;50.50;;;;;;5090546;28;20467;-75
2021/05/13 11:58:13;;;;;;;10.57;4.20;;;23.80;50.90;;;;;;5087876;28;20429;-72
2021/05/13 12:00:41;;;;;;;11.45;5.00;;;23.80;51.90;;;;;;5070683;28;20509;-74
2021/05/13 12:03:13;;;;;;;8.90;4.60;;;23.90;51.70;;;;;;5087843;28;20405;-72
2021/05/13 12:05:50;;;;;;;9.93;4.15;;;24.00;50.90;;;;;;5086071;28;20422;-72
2021/05/13 12:08:18;;;;;;;8.50;3.85;;;24.20;49.70;;;;;;5068813;28;20469;-74
2021/05/13 12:10:45;;;;;;;9.15;3.50;;;24.20;48.70;;;;;;5088363;28;20409;-73
2021/05/13 12:13:11;;;;;;;8.57;3.40;;;24.40;48.80;;;;;;5089170;28;20426;-72
2021/05/13 12:15:38;;;;;;;8.00;3.58;;;24.50;48.20;;;;;;5086492;28;20470;-74
2021/05/13 12:18:06;;;;;;;8.65;3.40;;;24.60;47.50;;;;;;5088815;28;20417;-73
2021/05/13 12:20:35;;;;;;;7.15;3.38;;;24.60;46.80;;;;;;5089449;28;20414;-73
2021/05/13 12:23:03;;;;;;;10.25;3.60;;;24.70;46.00;;;;;;5089514;28;20406;-72
2021/05/13 12:25:30;;;;;;;9.32;3.50;;;24.70;46.10;;;;;;5089111;28;20425;-72
2021/05/13 12:27:57;;;;;;;7.53;3.67;;;24.80;47.00;;;;;;5104612;28;20413;-73
2021/05/13 12:30:25;;;;;;;8.45;3.30;;;24.90;45.80;;;;;;5085430;28;20437;-72
2021/05/13 12:32:51;;;;;;;7.38;3.40;;;25.00;45.70;;;;;;5087483;28;20427;-72
2021/05/13 12:35:28;;;;;;;10.43;3.53;;;25.20;45.40;;;;;;5089178;28;20820;-73
2021/05/13 12:38:11;;;;;;;10.25;2.80;;;25.30;45.30;;;;;;5089714;28;20674;-72
2021/05/13 12:40:38;;;;;;;9.90;4.00;;;25.20;46.30;;;;;;5089624;28;20193;-73
2021/05/13 12:43:11;;;;;;;8.95;3.95;;;25.10;46.80;;;;;;5089102;28;20189;-73
2021/05/13 12:45:46;;;;;;;7.65;3.40;;;25.00;46.90;;;;;;5071801;28;20734;-73